Euskara    
Meteorología y climatología de Navarra
Datos de la estación - Meteo Navarra

Estación de Bardenas (El Yugo) GN

Altitud 486 m.


Datos desde el 22/11/2020 hasta el 23/11/2020 en horario solar
Los datos son PROVISIONALES

Anterior Página 1 de 1 Siguiente Descargar: Formato para Excel 2000 o superior   Formato csv   Formato para OpenOffice Calc
Fecha Temperatura Humedad relativa Radiación global Insolación Precipitación Vel. viento 10 m Vel. viento 10 m Dir. viento 10 m
°C % W/m² s l/m² m/s km/h °
22/11/2020 0:00 4.1 76 0.0 0 0.0 3.8 13.8 117
22/11/2020 0:10 4.4 74 0.0 0 0.0 3.3 12.0 125
22/11/2020 0:20 4.8 69 0.0 0 0.0 3.0 10.7 139
22/11/2020 0:30 5.0 66 0.0 0 0.0 3.3 12.0 143
22/11/2020 0:40 4.9 66 0.0 0 0.0 3.5 12.7 140
22/11/2020 0:50 5.0 66 0.0 0 0.0 3.3 11.8 149
22/11/2020 1:00 4.9 66 0.0 0 0.0 3.1 11.2 160
22/11/2020 1:10 4.7 67 0.0 0 0.0 2.7 9.7 152
22/11/2020 1:20 4.6 67 0.0 0 0.0 2.3 8.2 121
22/11/2020 1:30 4.2 69 0.0 0 0.0 1.7 6.2 105
22/11/2020 1:40 4.0 71 0.0 0 0.0 2.1 7.6 129
22/11/2020 1:50 4.2 69 0.0 0 0.0 1.8 6.4 113
22/11/2020 2:00 3.5 73 0.0 0 0.0 1.7 5.9 89
22/11/2020 2:10 2.3 81 0.0 0 0.0 2.5 8.8 98
22/11/2020 2:20 1.9 84 0.0 0 0.0 2.0 7.3 101
22/11/2020 2:30 1.9 86 0.0 0 0.0 2.6 9.2 104
22/11/2020 2:40 1.9 86 0.0 0 0.0 2.4 8.6 101
22/11/2020 2:50 1.9 86 0.0 0 0.0 2.4 8.5 105
22/11/2020 3:00 1.9 86 0.0 0 0.0 2.3 8.4 103
22/11/2020 3:10 2.2 86 0.0 0 0.0 1.8 6.3 142
22/11/2020 3:20 2.7 82 0.0 0 0.0 1.3 4.5 138
22/11/2020 3:30 2.5 82 0.0 0 0.0 2.2 8.0 111
22/11/2020 3:40 2.1 84 0.0 0 0.0 1.5 5.4 138
22/11/2020 3:50 2.4 83 0.0 0 0.0 0.7 2.5 205
22/11/2020 4:00 2.7 80 0.0 0 0.0 0.6 2.3 237
22/11/2020 4:10 2.5 80 0.0 0 0.0 1.6 5.6 258
22/11/2020 4:20 2.2 82 0.0 0 0.0 1.8 6.3 259
22/11/2020 4:30 2.2 81 0.0 0 0.0 2.0 7.3 256
22/11/2020 4:40 2.3 79 0.0 0 0.0 1.7 5.9 272
22/11/2020 4:50 2.3 79 0.0 0 0.0 1.0 3.4 279
22/11/2020 5:00 2.5 78 0.0 0 0.0 0.9 3.2 332
22/11/2020 5:10 2.6 78 0.0 0 0.0 1.2 4.1 297
22/11/2020 5:20 2.7 77 0.0 0 0.0 0.8 2.8 325
22/11/2020 5:30 2.6 78 0.0 0 0.0 0.7 2.5 335
22/11/2020 5:40 2.5 79 0.0 0 0.0 0.8 2.9 355
22/11/2020 5:50 2.1 81 0.0 0 0.0 0.8 2.8 16
22/11/2020 6:00 2.2 82 0.0 0 0.0 0.9 3.3 5
22/11/2020 6:10 2.1 82 0.0 0 0.0 1.2 4.2 30
22/11/2020 6:20 1.8 84 0.0 0 0.0 1.3 4.7 53
22/11/2020 6:30 1.7 84 0.0 0 0.0 1.4 5.1 80
22/11/2020 6:40 1.6 86 0.0 0 0.0 1.4 4.9 84
22/11/2020 6:50 1.7 86 0.0 0 0.0 1.2 4.3 79
22/11/2020 7:00 2.1 85 0.0 0 0.0 1.0 3.7 61
22/11/2020 7:10 2.4 82 0.0 0 0.0 1.0 3.7 44
22/11/2020 7:20 2.5 81 3.9 0 0.0 1.1 3.8 65
22/11/2020 7:30 2.7 81 26.7 186 0.0 1.0 3.6 74
22/11/2020 7:40 2.9 80 46.6 600 0.0 0.9 3.1 65
22/11/2020 7:50 3.1 79 68.9 600 0.0 0.9 3.1 35
22/11/2020 8:00 3.7 77 92.8 600 0.0 0.7 2.3 18
22/11/2020 8:10 3.2 77 116.5 600 0.0 0.5 1.8 5
22/11/2020 8:20 4.4 74 141.5 600 0.0 0.7 2.6 55
22/11/2020 8:30 5.2 71 166.1 600 0.0 0.5 1.9 19
22/11/2020 8:40 4.7 75 191.1 600 0.0 1.1 3.8 330
22/11/2020 8:50 4.1 78 215.4 600 0.0 0.1 0.4 282
22/11/2020 9:00 4.6 75 238.4 600 0.0 0.5 1.9 17
22/11/2020 9:10 4.6 75 262.4 600 0.0 0.7 2.6 26
22/11/2020 9:20 5.0 75 284.7 600 0.0 0.5 1.8 15
22/11/2020 9:30 5.6 72 307.7 600 0.0 0.3 1.1 26
22/11/2020 9:40 5.9 72 328.1 600 0.0 0.3 1.0 20
22/11/2020 9:50 6.2 71 347.9 600 0.0 1.1 3.9 246
22/11/2020 10:00 6.1 70 367.5 600 0.0 1.4 4.9 216
22/11/2020 10:10 6.3 69 384.6 600 0.0 0.9 3.1 235
22/11/2020 10:20 6.5 69 399.6 600 0.0 1.0 3.5 294
22/11/2020 10:30 7.0 69 413.4 600 0.0 0.6 2.0 298
22/11/2020 10:40 7.4 67 426.5 600 0.0 0.9 3.3 340
22/11/2020 10:50 7.7 66 437.0 600 0.0 0.7 2.4 16
22/11/2020 11:00 8.1 64 445.0 600 0.0 0.6 2.0 8
22/11/2020 11:10 8.5 63 454.7 600 0.0 0.4 1.3 70
22/11/2020 11:20 8.6 61 462.1 600 0.0 0.9 3.2 58
22/11/2020 11:30 8.6 60 468.4 600 0.0 1.2 4.2 13
22/11/2020 11:40 8.8 60 471.0 600 0.0 1.7 6.3 18
22/11/2020 11:50 9.0 59 473.7 600 0.0 1.4 5.2 360
22/11/2020 12:00 9.1 59 474.0 600 0.0 1.4 4.9 16
22/11/2020 12:10 9.4 58 474.1 600 0.0 1.0 3.6 57
22/11/2020 12:20 9.9 57 471.8 600 0.0 1.0 3.6 35
22/11/2020 12:30 10.0 56 467.3 600 0.0 1.1 4.0 18
22/11/2020 12:40 9.8 57 461.6 600 0.0 0.8 2.8 354
22/11/2020 12:50 10.5 54 453.3 600 0.0 0.8 2.7 38
22/11/2020 13:00 10.6 53 443.6 600 0.0 0.9 3.1 269
22/11/2020 13:10 11.2 53 433.5 600 0.0 1.5 5.3 214
22/11/2020 13:20 11.3 52 422.3 600 0.0 1.3 4.8 228
22/11/2020 13:30 11.5 51 408.3 600 0.0 1.1 3.8 243
22/11/2020 13:40 11.8 49 392.6 600 0.0 1.2 4.2 239
22/11/2020 13:50 11.6 50 373.6 600 0.0 0.7 2.3 223
22/11/2020 14:00 11.7 50 352.5 600 0.0 1.1 3.8 138
22/11/2020 14:10 11.7 50 332.4 600 0.0 0.7 2.4 208
22/11/2020 14:20 12.1 48 312.3 600 0.0 1.3 4.8 220
22/11/2020 14:30 12.0 48 289.8 600 0.0 0.6 2.3 222
22/11/2020 14:40 11.7 49 267.5 600 0.0 0.7 2.4 226
22/11/2020 14:50 11.4 49 249.4 600 0.0 0.9 3.3 128
22/11/2020 15:00 11.6 48 227.9 600 0.0 1.0 3.7 217
22/11/2020 15:10 11.9 46 204.0 600 0.0 1.0 3.7 246
22/11/2020 15:20 11.6 46 167.9 600 0.0 0.6 2.3 191
22/11/2020 15:30 11.1 49 111.7 492 0.0 0.5 1.8 71
22/11/2020 15:40 10.9 50 107.8 600 0.0 0.1 0.2 88
22/11/2020 15:50 10.9 49 85.9 600 0.0 0.2 0.9 284
22/11/2020 16:00 10.5 50 77.7 600 0.0 0.3 1.0 11
22/11/2020 16:10 10.2 51 61.0 600 0.0 0.4 1.5 2
22/11/2020 16:20 9.5 53 36.9 518 0.0 1.0 3.5 349
22/11/2020 16:30 9.2 53 12.4 0 0.0 0.8 2.9 344
22/11/2020 16:40 8.9 54 0.0 0 0.0 1.2 4.3 353
22/11/2020 16:50 8.2 56 0.0 0 0.0 1.3 4.8 8
22/11/2020 17:00 7.9 57 0.0 0 0.0 0.8 3.0 53
22/11/2020 17:10 8.0 57 0.0 0 0.0 1.1 3.9 30
22/11/2020 17:20 8.0 58 0.0 0 0.0 1.2 4.3 34
22/11/2020 17:30 7.9 58 0.0 0 0.0 1.2 4.4 64
22/11/2020 17:40 7.9 58 0.0 0 0.0 1.3 4.5 77
22/11/2020 17:50 7.9 58 0.0 0 0.0 0.8 3.0 88
22/11/2020 18:00 8.0 57 0.0 0 0.0 0.8 2.9 114
22/11/2020 18:10 7.7 58 0.0 0 0.0 1.4 4.9 176
22/11/2020 18:20 7.2 60 0.0 0 0.0 1.3 4.7 182
22/11/2020 18:30 7.2 59 0.0 0 0.0 1.3 4.5 205
22/11/2020 18:40 7.5 58 0.0 0 0.0 0.9 3.1 206
22/11/2020 18:50 7.6 57 0.0 0 0.0 1.0 3.6 205
22/11/2020 19:00 7.6 57 0.0 0 0.0 1.2 4.4 199
22/11/2020 19:10 7.4 58 0.0 0 0.0 1.2 4.4 208
22/11/2020 19:20 7.4 58 0.0 0 0.0 1.3 4.6 229
22/11/2020 19:30 7.2 58 0.0 0 0.0 1.2 4.4 210
22/11/2020 19:40 7.1 59 0.0 0 0.0 1.1 3.9 201
22/11/2020 19:50 7.2 58 0.0 0 0.0 0.9 3.1 181
22/11/2020 20:00 7.5 58 0.0 0 0.0 0.9 3.2 175
22/11/2020 20:10 7.3 58 0.0 0 0.0 1.3 4.8 187
22/11/2020 20:20 6.9 59 0.0 0 0.0 1.3 4.8 202
22/11/2020 20:30 6.7 60 0.0 0 0.0 1.1 4.1 198
22/11/2020 20:40 6.9 60 0.0 0 0.0 0.8 2.7 200
22/11/2020 20:50 7.4 58 0.0 0 0.0 0.6 2.2 200
22/11/2020 21:00 7.6 57 0.0 0 0.0 0.5 1.7 200
22/11/2020 21:10 7.7 57 0.0 0 0.0 0.1 0.4 200
22/11/2020 21:20 7.6 58 0.0 0 0.0 0.0 0.0 0
22/11/2020 21:30 7.5 58 0.0 0 0.0 0.4 1.5 199
22/11/2020 21:40 7.3 59 0.0 0 0.0 0.7 2.3 197
22/11/2020 21:50 6.9 61 0.0 0 0.0 0.8 3.0 193
22/11/2020 22:00 6.8 62 0.0 0 0.0 0.9 3.3 194
22/11/2020 22:10 6.8 62 0.0 0 0.0 0.3 1.2 193
22/11/2020 22:20 6.9 61 0.0 0 0.0 0.0 0.0 0
22/11/2020 22:30 7.1 60 0.0 0 0.0 0.0 0.0 0
22/11/2020 22:40 6.9 61 0.0 0 0.0 0.0 0.0 0
22/11/2020 22:50 6.9 61 0.0 0 0.0 0.3 1.1 194
22/11/2020 23:00 6.9 61 0.0 0 0.0 0.8 3.0 194
22/11/2020 23:10 6.5 63 0.0 0 0.0 0.9 3.3 194
22/11/2020 23:20 6.4 64 0.0 0 0.0 0.5 1.8 194
22/11/2020 23:30 6.5 63 0.0 0 0.0 0.2 0.6 130
22/11/2020 23:40 6.3 63 0.0 0 0.0 0.9 3.4 46
22/11/2020 23:50 6.1 64 0.0 0 0.0 1.3 4.6 35
Anterior Página 1 de 1 Siguiente

NOTA: Tipo de datos según el color:
   - Valores diarios o 10 minutos correctos
   - Valores diarios calculados a partir de un número de datos 10 minutos menor que 144 y mayor que 120, o de un número de datos semihorarios menor que 48 y mayor que 40 (caso de las estaciones de INTIA Y Ministerio)
   - Valores diez minutos estimados


Contacto        Enlaces        Aviso legal